sensor_id;sensor_type;location;lat;lon;timestamp;pressure;altitude;pressure_sealevel;temperature;humidity
53916;BME280;39827;49.652;18.770;2023-06-22T00:01:01;73345.53;;;-149.71;93.22
53916;BME280;39827;49.652;18.770;2023-06-22T00:03:27;73349.56;;;-149.71;93.33
53916;BME280;39827;49.652;18.770;2023-06-22T00:05:53;73361.63;;;-149.71;93.59
53916;BME280;39827;49.652;18.770;2023-06-22T00:08:19;73363.63;;;-149.71;93.46
53916;BME280;39827;49.652;18.770;2023-06-22T00:10:45;73381.69;;;-149.71;93.91
53916;BME280;39827;49.652;18.770;2023-06-22T00:13:12;73377.69;;;-149.71;93.38
53916;BME280;39827;49.652;18.770;2023-06-22T00:15:40;73369.66;;;-149.71;92.90
53916;BME280;39827;49.652;18.770;2023-06-22T00:18:09;73371.66;;;-149.71;93.11
53916;BME280;39827;49.652;18.770;2023-06-22T00:20:34;73391.75;;;-149.71;93.66
53916;BME280;39827;49.652;18.770;2023-06-22T00:23:03;73381.69;;;-149.71;93.45
53916;BME280;39827;49.652;18.770;2023-06-22T00:25:42;73369.66;;;-149.71;93.22
53916;BME280;39827;49.652;18.770;2023-06-22T00:28:08;73361.63;;;-149.71;92.89
53916;BME280;39827;49.652;18.770;2023-06-22T00:30:34;73349.56;;;-149.71;92.48
53916;BME280;39827;49.652;18.770;2023-06-22T00:33:00;73347.56;;;-149.71;92.25
53916;BME280;39827;49.652;18.770;2023-06-22T00:35:26;73337.50;;;-149.71;91.96
53916;BME280;39827;49.652;18.770;2023-06-22T00:37:55;73327.47;;;-149.71;91.61
53916;BME280;39827;49.652;18.770;2023-06-22T00:40:32;73333.50;;;-149.71;91.43
53916;BME280;39827;49.652;18.770;2023-06-22T00:42:58;73331.50;;;-149.71;91.35
53916;BME280;39827;49.652;18.770;2023-06-22T00:45:24;73343.53;;;-149.71;91.61
53916;BME280;39827;49.652;18.770;2023-06-22T00:47:55;73337.50;;;-149.71;92.27
53916;BME280;39827;49.652;18.770;2023-06-22T00:50:23;73347.56;;;-149.71;92.12
53916;BME280;39827;49.652;18.770;2023-06-22T00:52:56;73337.50;;;-149.71;91.87
53916;BME280;39827;49.652;18.770;2023-06-22T00:55:23;73347.56;;;-149.71;92.19
53916;BME280;39827;49.652;18.770;2023-06-22T00:57:50;73363.63;;;-149.71;92.17
53916;BME280;39827;49.652;18.770;2023-06-22T01:00:22;73357.59;;;-149.71;92.12
53916;BME280;39827;49.652;18.770;2023-06-22T01:02:50;73337.50;;;-149.71;91.60
53916;BME280;39827;49.652;18.770;2023-06-22T01:05:18;73335.50;;;-149.71;91.19
53916;BME280;39827;49.652;18.770;2023-06-22T01:10:48;73343.53;;;-149.71;91.23
53916;BME280;39827;49.652;18.770;2023-06-22T01:13:37;73359.59;;;-149.71;91.76
53916;BME280;39827;49.652;18.770;2023-06-22T01:16:10;73379.69;;;-149.71;92.51
53916;BME280;39827;49.652;18.770;2023-06-22T01:18:40;73361.63;;;-149.71;92.16
53916;BME280;39827;49.652;18.770;2023-06-22T01:21:06;73359.59;;;-149.71;92.23
53916;BME280;39827;49.652;18.770;2023-06-22T01:26:12;73349.56;;;-149.71;91.52
53916;BME280;39827;49.652;18.770;2023-06-22T01:28:50;73351.56;;;-149.71;91.27
53916;BME280;39827;49.652;18.770;2023-06-22T01:31:18;73371.66;;;-149.71;91.39
53916;BME280;39827;49.652;18.770;2023-06-22T01:33:48;73385.72;;;-149.71;91.45
53916;BME280;39827;49.652;18.770;2023-06-22T01:36:16;73381.69;;;-149.71;92.58
53916;BME280;39827;49.652;18.770;2023-06-22T01:38:43;73361.63;;;-149.71;92.51
53916;BME280;39827;49.652;18.770;2023-06-22T01:41:10;73351.56;;;-149.71;91.61
53916;BME280;39827;49.652;18.770;2023-06-22T01:43:36;73361.63;;;-149.71;91.89
53916;BME280;39827;49.652;18.770;2023-06-22T01:46:02;73355.59;;;-149.71;91.61
53916;BME280;39827;49.652;18.770;2023-06-22T01:48:28;73367.63;;;-149.71;91.83
53916;BME280;39827;49.652;18.770;2023-06-22T01:50:54;73363.63;;;-149.71;91.82
53916;BME280;39827;49.652;18.770;2023-06-22T01:53:21;73381.69;;;-149.71;92.00
53916;BME280;39827;49.652;18.770;2023-06-22T01:55:47;73391.75;;;-149.71;92.77
53916;BME280;39827;49.652;18.770;2023-06-22T01:58:13;73407.81;;;-149.71;93.42
53916;BME280;39827;49.652;18.770;2023-06-22T02:00:41;73407.81;;;-149.71;93.23
53916;BME280;39827;49.652;18.770;2023-06-22T02:03:15;73381.69;;;-149.71;92.29
53916;BME280;39827;49.652;18.770;2023-06-22T02:05:47;73391.75;;;-149.71;91.79
53916;BME280;39827;49.652;18.770;2023-06-22T02:08:30;73407.81;;;-149.71;91.51
53916;BME280;39827;49.652;18.770;2023-06-22T02:10:57;73429.91;;;-149.71;92.54
53916;BME280;39827;49.652;18.770;2023-06-22T02:13:25;73445.97;;;-149.71;92.11
53916;BME280;39827;49.652;18.770;2023-06-22T02:15:51;73441.97;;;-149.71;91.87
53916;BME280;39827;49.652;18.770;2023-06-22T02:18:16;73448.00;;;-149.71;91.98
53916;BME280;39827;49.652;18.770;2023-06-22T02:20:42;73460.03;;;-149.71;92.16
53916;BME280;39827;49.652;18.770;2023-06-22T02:23:07;73464.06;;;-149.71;92.12
53916;BME280;39827;49.652;18.770;2023-06-22T02:25:34;73468.06;;;-149.71;92.47
53916;BME280;39827;49.652;18.770;2023-06-22T02:28:00;73474.09;;;-149.71;93.29
53916;BME280;39827;49.652;18.770;2023-06-22T02:30:25;73470.09;;;-149.71;93.30
53916;BME280;39827;49.652;18.770;2023-06-22T02:32:51;73480.13;;;-149.71;93.66
53916;BME280;39827;49.652;18.770;2023-06-22T02:35:27;73480.13;;;-149.71;92.93
53916;BME280;39827;49.652;18.770;2023-06-22T02:37:59;73490.19;;;-149.71;93.18
53916;BME280;39827;49.652;18.770;2023-06-22T02:40:26;73484.16;;;-149.71;93.32
53916;BME280;39827;49.652;18.770;2023-06-22T02:42:51;73478.13;;;-149.71;92.60
53916;BME280;39827;49.652;18.770;2023-06-22T02:45:16;73492.19;;;-149.71;93.03
53916;BME280;39827;49.652;18.770;2023-06-22T02:47:42;73520.31;;;-149.71;94.13
53916;BME280;39827;49.652;18.770;2023-06-22T02:50:08;73512.28;;;-149.71;94.60
53916;BME280;39827;49.652;18.770;2023-06-22T02:52:33;73514.28;;;-149.71;94.85
53916;BME280;39827;49.652;18.770;2023-06-22T02:54:59;73504.22;;;-149.71;93.74
53916;BME280;39827;49.652;18.770;2023-06-22T02:57:25;73508.25;;;-149.71;93.11
53916;BME280;39827;49.652;18.770;2023-06-22T02:59:50;73496.19;;;-149.71;92.21
53916;BME280;39827;49.652;18.770;2023-06-22T03:02:16;73514.28;;;-149.71;93.13
53916;BME280;39827;49.652;18.770;2023-06-22T03:04:41;73510.25;;;-149.71;92.87
53916;BME280;39827;49.652;18.770;2023-06-22T03:07:08;73516.28;;;-149.71;92.74
53916;BME280;39827;49.652;18.770;2023-06-22T03:09:33;73540.41;;;-149.71;93.55
53916;BME280;39827;49.652;18.770;2023-06-22T03:11:58;73518.28;;;-149.71;93.42
53916;BME280;39827;49.652;18.770;2023-06-22T03:14:24;73516.28;;;-149.71;93.39
53916;BME280;39827;49.652;18.770;2023-06-22T03:16:49;73506.25;;;-149.71;92.67
53916;BME280;39827;49.652;18.770;2023-06-22T03:19:15;73500.22;;;-149.71;92.57
53916;BME280;39827;49.652;18.770;2023-06-22T03:21:40;73514.28;;;-149.71;92.58
53916;BME280;39827;49.652;18.770;2023-06-22T03:24:06;73496.19;;;-149.71;92.42
53916;BME280;39827;49.652;18.770;2023-06-22T03:26:32;73500.22;;;-149.71;92.22
53916;BME280;39827;49.652;18.770;2023-06-22T03:28:57;73496.19;;;-149.71;92.00
53916;BME280;39827;49.652;18.770;2023-06-22T03:31:23;73502.22;;;-149.71;91.76
53916;BME280;39827;49.652;18.770;2023-06-22T03:33:49;73504.22;;;-149.71;92.00
53916;BME280;39827;49.652;18.770;2023-06-22T03:36:16;73510.25;;;-149.71;92.41
53916;BME280;39827;49.652;18.770;2023-06-22T03:38:48;73506.25;;;-149.71;92.43
53916;BME280;39827;49.652;18.770;2023-06-22T03:41:15;73498.22;;;-149.71;92.38
53916;BME280;39827;49.652;18.770;2023-06-22T03:43:40;73496.19;;;-149.71;92.18
53916;BME280;39827;49.652;18.770;2023-06-22T03:46:06;73472.09;;;-149.71;91.33
53916;BME280;39827;49.652;18.770;2023-06-22T03:48:31;73472.09;;;-149.71;91.00
53916;BME280;39827;49.652;18.770;2023-06-22T03:50:59;73476.13;;;-149.71;90.81
53916;BME280;39827;49.652;18.770;2023-06-22T03:53:24;73460.03;;;-149.71;90.63
53916;BME280;39827;49.652;18.770;2023-06-22T03:55:51;73464.06;;;-149.71;91.03
53916;BME280;39827;49.652;18.770;2023-06-22T03:58:17;73454.00;;;-149.71;91.02
53916;BME280;39827;49.652;18.770;2023-06-22T04:00:47;73456.03;;;-149.71;90.66
53916;BME280;39827;49.652;18.770;2023-06-22T04:03:14;73448.00;;;-149.71;90.39
53916;BME280;39827;49.652;18.770;2023-06-22T04:05:39;73456.03;;;-149.71;90.93
53916;BME280;39827;49.652;18.770;2023-06-22T04:08:05;73439.97;;;-149.71;90.83
53916;BME280;39827;49.652;18.770;2023-06-22T04:10:31;73427.91;;;-149.71;90.27
53916;BME280;39827;49.652;18.770;2023-06-22T04:12:56;73427.91;;;-149.71;89.95
53916;BME280;39827;49.652;18.770;2023-06-22T04:15:22;73427.91;;;-149.71;89.82
53916;BME280;39827;49.652;18.770;2023-06-22T04:17:47;73423.88;;;-149.71;90.07
53916;BME280;39827;49.652;18.770;2023-06-22T04:20:13;73423.88;;;-149.71;90.52
53916;BME280;39827;49.652;18.770;2023-06-22T04:22:38;73421.88;;;-149.71;90.44
53916;BME280;39827;49.652;18.770;2023-06-22T04:25:05;73397.78;;;-149.71;90.15
53916;BME280;39827;49.652;18.770;2023-06-22T04:27:33;73403.81;;;-149.71;90.37
53916;BME280;39827;49.652;18.770;2023-06-22T04:30:03;73403.81;;;-149.71;90.77
53916;BME280;39827;49.652;18.770;2023-06-22T04:32:29;73383.72;;;-149.71;90.64
53916;BME280;39827;49.652;18.770;2023-06-22T04:34:54;73397.78;;;-149.71;91.12
53916;BME280;39827;49.652;18.770;2023-06-22T04:37:19;73395.75;;;-149.71;91.52
53916;BME280;39827;49.652;18.770;2023-06-22T04:39:49;73377.69;;;-149.71;91.04
53916;BME280;39827;49.652;18.770;2023-06-22T04:42:14;73365.63;;;-149.71;90.76
53916;BME280;39827;49.652;18.770;2023-06-22T04:44:40;73347.56;;;-149.71;90.70
53916;BME280;39827;49.652;18.770;2023-06-22T04:47:07;73323.44;;;-149.71;90.38
53916;BME280;39827;49.652;18.770;2023-06-22T04:49:34;73315.41;;;-149.71;90.62
53916;BME280;39827;49.652;18.770;2023-06-22T04:52:07;73293.31;;;-149.71;90.42
53916;BME280;39827;49.652;18.770;2023-06-22T04:54:34;73277.25;;;-149.71;90.03
53916;BME280;39827;49.652;18.770;2023-06-22T04:57:01;73255.16;;;-149.71;89.66
53916;BME280;39827;49.652;18.770;2023-06-22T04:59:28;73243.09;;;-149.71;88.64
53916;BME280;39827;49.652;18.770;2023-06-22T05:01:59;73231.06;;;-149.71;87.60
53916;BME280;39827;49.652;18.770;2023-06-22T05:04:26;73221.00;;;-149.71;87.18
53916;BME280;39827;49.652;18.770;2023-06-22T05:06:54;73194.91;;;-149.71;86.56
53916;BME280;39827;49.652;18.770;2023-06-22T05:09:20;73206.94;;;-149.71;85.73
53916;BME280;39827;49.652;18.770;2023-06-22T05:11:46;73164.78;;;-149.71;84.32
53916;BME280;39827;49.652;18.770;2023-06-22T05:14:11;73126.59;;;-149.71;83.46
53916;BME280;39827;49.652;18.770;2023-06-22T05:16:37;73108.53;;;-149.71;83.73
53916;BME280;39827;49.652;18.770;2023-06-22T05:19:03;73122.59;;;-149.71;82.46
53916;BME280;39827;49.652;18.770;2023-06-22T05:21:29;73106.53;;;-149.71;83.15
53916;BME280;39827;49.652;18.770;2023-06-22T05:23:55;73112.53;;;-149.71;83.93
53916;BME280;39827;49.652;18.770;2023-06-22T05:26:25;73098.50;;;-149.71;82.86
53916;BME280;39827;49.652;18.770;2023-06-22T05:28:51;73074.38;;;-149.71;80.69
53916;BME280;39827;49.652;18.770;2023-06-22T05:31:17;73040.25;;;-149.71;79.92
53916;BME280;39827;49.652;18.770;2023-06-22T05:33:45;73038.22;;;-149.71;78.60
53916;BME280;39827;49.652;18.770;2023-06-22T05:36:11;73038.22;;;-149.71;78.62
53916;BME280;39827;49.652;18.770;2023-06-22T05:38:38;73022.16;;;-149.71;78.21
53916;BME280;39827;49.652;18.770;2023-06-22T05:41:04;73014.13;;;-149.71;77.97
53916;BME280;39827;49.652;18.770;2023-06-22T05:43:29;72982.00;;;-149.71;76.90
53916;BME280;39827;49.652;18.770;2023-06-22T05:45:55;72961.91;;;-149.71;77.14
53916;BME280;39827;49.652;18.770;2023-06-22T05:48:20;72927.75;;;-149.71;75.77
53916;BME280;39827;49.652;18.770;2023-06-22T05:50:45;72893.63;;;-149.71;75.17
53916;BME280;39827;49.652;18.770;2023-06-22T05:53:11;72897.63;;;-149.71;77.81
53916;BME280;39827;49.652;18.770;2023-06-22T05:55:36;72865.50;;;-149.71;77.86
53916;BME280;39827;49.652;18.770;2023-06-22T05:58:02;72825.34;;;-149.71;75.97
53916;BME280;39827;49.652;18.770;2023-06-22T06:00:30;72791.19;;;-149.71;74.28
53916;BME280;39827;49.652;18.770;2023-06-22T06:02:56;72789.19;;;-149.71;72.80
53916;BME280;39827;49.652;18.770;2023-06-22T06:05:22;72777.13;;;-149.71;72.29
53916;BME280;39827;49.652;18.770;2023-06-22T06:07:48;72763.06;;;-149.71;71.15
53916;BME280;39827;49.652;18.770;2023-06-22T06:10:13;72732.94;;;-149.71;70.07
53916;BME280;39827;49.652;18.770;2023-06-22T06:12:39;72700.81;;;-149.71;68.54
53916;BME280;39827;49.652;18.770;2023-06-22T06:15:04;72688.75;;;-149.71;65.78
53916;BME280;39827;49.652;18.770;2023-06-22T06:17:30;72672.69;;;-149.71;68.06
53916;BME280;39827;49.652;18.770;2023-06-22T06:19:56;72642.56;;;-149.71;65.63
53916;BME280;39827;49.652;18.770;2023-06-22T06:22:21;72626.50;;;-149.71;62.11
53916;BME280;39827;49.652;18.770;2023-06-22T06:24:49;72628.50;;;-149.71;63.59
53916;BME280;39827;49.652;18.770;2023-06-22T06:27:15;72618.47;;;-149.71;65.41
53916;BME280;39827;49.652;18.770;2023-06-22T06:29:43;72588.34;;;-149.71;63.18
53916;BME280;39827;49.652;18.770;2023-06-22T06:32:10;72610.44;;;-149.71;62.40
53916;BME280;39827;49.652;18.770;2023-06-22T06:34:36;72566.25;;;-149.71;61.42
53916;BME280;39827;49.652;18.770;2023-06-22T06:37:01;72532.13;;;-149.71;62.12
53916;BME280;39827;49.652;18.770;2023-06-22T06:39:27;72524.09;;;-149.71;61.13
53916;BME280;39827;49.652;18.770;2023-06-22T06:41:52;72510.03;;;-149.71;61.47
53916;BME280;39827;49.652;18.770;2023-06-22T06:44:18;72499.97;;;-149.71;60.42
53916;BME280;39827;49.652;18.770;2023-06-22T06:46:43;72455.81;;;-149.71;59.87
53916;BME280;39827;49.652;18.770;2023-06-22T06:49:08;72441.75;;;-149.71;57.98
53916;BME280;39827;49.652;18.770;2023-06-22T06:51:34;72447.78;;;-149.71;60.01
53916;BME280;39827;49.652;18.770;2023-06-22T06:53:59;72423.66;;;-149.71;56.63
53916;BME280;39827;49.652;18.770;2023-06-22T06:56:25;72423.66;;;-149.71;59.08
53916;BME280;39827;49.652;18.770;2023-06-22T06:58:51;72405.59;;;-149.71;58.09
53916;BME280;39827;49.652;18.770;2023-06-22T07:01:17;72399.56;;;-149.71;55.69
53916;BME280;39827;49.652;18.770;2023-06-22T07:03:42;72355.38;;;-149.71;56.33
53916;BME280;39827;49.652;18.770;2023-06-22T07:06:08;72359.41;;;-149.71;57.26
53916;BME280;39827;49.652;18.770;2023-06-22T07:08:34;72359.41;;;-149.71;57.60
53916;BME280;39827;49.652;18.770;2023-06-22T07:11:01;72343.34;;;-149.71;56.66
53916;BME280;39827;49.652;18.770;2023-06-22T07:13:27;72315.22;;;-149.71;56.50
53916;BME280;39827;49.652;18.770;2023-06-22T07:15:52;72333.31;;;-149.71;56.85
53916;BME280;39827;49.652;18.770;2023-06-22T07:18:17;72319.25;;;-149.71;56.17
53916;BME280;39827;49.652;18.770;2023-06-22T07:20:43;72291.13;;;-149.71;54.44
53916;BME280;39827;49.652;18.770;2023-06-22T07:23:08;72254.97;;;-149.71;54.43
53916;BME280;39827;49.652;18.770;2023-06-22T07:25:34;72242.94;;;-149.71;50.92
53916;BME280;39827;49.652;18.770;2023-06-22T07:28:00;72254.97;;;-149.71;51.27
53916;BME280;39827;49.652;18.770;2023-06-22T07:30:27;72212.81;;;-149.71;51.33
53916;BME280;39827;49.652;18.770;2023-06-22T07:32:53;72261.00;;;-149.71;52.46
53916;BME280;39827;49.652;18.770;2023-06-22T07:35:19;72295.16;;;-149.71;50.79
53916;BME280;39827;49.652;18.770;2023-06-22T07:37:44;72347.34;;;-149.71;53.91
53916;BME280;39827;49.652;18.770;2023-06-22T07:40:10;72345.34;;;-149.71;53.95
53916;BME280;39827;49.652;18.770;2023-06-22T07:42:35;72383.50;;;-149.71;55.05
53916;BME280;39827;49.652;18.770;2023-06-22T07:45:03;72327.28;;;-149.71;53.61
53916;BME280;39827;49.652;18.770;2023-06-22T07:47:29;72315.22;;;-149.71;51.42
53916;BME280;39827;49.652;18.770;2023-06-22T07:49:55;72301.16;;;-149.71;54.09
53916;BME280;39827;49.652;18.770;2023-06-22T07:52:23;72265.03;;;-149.71;51.71
53916;BME280;39827;49.652;18.770;2023-06-22T07:54:48;72216.84;;;-149.71;49.65
53916;BME280;39827;49.652;18.770;2023-06-22T07:57:14;72230.88;;;-149.71;49.24
53916;BME280;39827;49.652;18.770;2023-06-22T07:59:39;72158.59;;;-149.71;49.78
53916;BME280;39827;49.652;18.770;2023-06-22T08:02:05;72108.41;;;-149.71;49.66
53916;BME280;39827;49.652;18.770;2023-06-22T08:04:30;72106.38;;;-149.71;48.43
53916;BME280;39827;49.652;18.770;2023-06-22T08:06:59;72096.34;;;-149.71;47.94
53916;BME280;39827;49.652;18.770;2023-06-22T08:09:24;72098.34;;;-149.71;48.95
53916;BME280;39827;49.652;18.770;2023-06-22T08:11:50;72102.38;;;-149.71;47.68
53916;BME280;39827;49.652;18.770;2023-06-22T08:14:15;72134.50;;;-149.71;47.09
53916;BME280;39827;49.652;18.770;2023-06-22T08:16:41;72082.28;;;-149.71;49.10
53916;BME280;39827;49.652;18.770;2023-06-22T08:19:07;72044.13;;;-149.71;49.05
53916;BME280;39827;49.652;18.770;2023-06-22T08:21:32;72050.16;;;-149.71;46.50
53916;BME280;39827;49.652;18.770;2023-06-22T08:23:58;72130.47;;;-149.71;50.43
53916;BME280;39827;49.652;18.770;2023-06-22T08:26:23;72048.16;;;-149.71;45.80
53916;BME280;39827;49.652;18.770;2023-06-22T08:28:49;72012.00;;;-149.71;47.21
53916;BME280;39827;49.652;18.770;2023-06-22T08:31:14;71965.81;;;-149.71;48.49
53916;BME280;39827;49.652;18.770;2023-06-22T08:33:40;71961.81;;;-149.71;46.61
53916;BME280;39827;49.652;18.770;2023-06-22T08:36:06;71947.75;;;-149.71;47.05
53916;BME280;39827;49.652;18.770;2023-06-22T08:38:33;71899.56;;;-149.71;45.46
53916;BME280;39827;49.652;18.770;2023-06-22T08:40:58;71889.53;;;-149.71;45.73
53916;BME280;39827;49.652;18.770;2023-06-22T08:43:25;71881.50;;;-149.71;44.28
53916;BME280;39827;49.652;18.770;2023-06-22T08:45:50;71869.44;;;-149.71;43.83
53916;BME280;39827;49.652;18.770;2023-06-22T08:48:16;71903.56;;;-149.71;44.62
53916;BME280;39827;49.652;18.770;2023-06-22T08:50:41;71969.84;;;-149.71;45.62
53916;BME280;39827;49.652;18.770;2023-06-22T08:53:06;71905.59;;;-149.71;44.30
53916;BME280;39827;49.652;18.770;2023-06-22T08:55:33;71903.56;;;-149.71;45.02
53916;BME280;39827;49.652;18.770;2023-06-22T08:57:58;71873.47;;;-149.71;45.43
53916;BME280;39827;49.652;18.770;2023-06-22T09:00:24;71841.34;;;-149.71;44.98
53916;BME280;39827;49.652;18.770;2023-06-22T09:02:49;71821.25;;;-149.71;44.07
53916;BME280;39827;49.652;18.770;2023-06-22T09:05:15;71855.38;;;-149.71;44.82
53916;BME280;39827;49.652;18.770;2023-06-22T09:07:41;71845.34;;;-149.71;43.01
53916;BME280;39827;49.652;18.770;2023-06-22T09:10:07;71845.34;;;-149.71;44.46
53916;BME280;39827;49.652;18.770;2023-06-22T09:12:33;71793.13;;;-149.71;43.04
53916;BME280;39827;49.652;18.770;2023-06-22T09:14:59;71773.06;;;-149.71;41.40
53916;BME280;39827;49.652;18.770;2023-06-22T09:17:25;71819.25;;;-149.71;41.68
53916;BME280;39827;49.652;18.770;2023-06-22T09:19:51;71785.09;;;-149.71;41.83
53916;BME280;39827;49.652;18.770;2023-06-22T09:22:16;71771.06;;;-149.71;41.66
53916;BME280;39827;49.652;18.770;2023-06-22T09:24:42;71759.00;;;-149.71;41.21
53916;BME280;39827;49.652;18.770;2023-06-22T09:27:07;71777.06;;;-149.71;40.96
53916;BME280;39827;49.652;18.770;2023-06-22T09:29:33;71755.00;;;-149.71;41.29
53916;BME280;39827;49.652;18.770;2023-06-22T09:31:59;71712.81;;;-149.71;40.79
53916;BME280;39827;49.652;18.770;2023-06-22T09:34:25;71684.72;;;-149.71;40.13
53916;BME280;39827;49.652;18.770;2023-06-22T09:36:50;71670.66;;;-149.71;41.59
53916;BME280;39827;49.652;18.770;2023-06-22T09:39:18;71660.63;;;-149.71;39.92
53916;BME280;39827;49.652;18.770;2023-06-22T09:41:43;71680.69;;;-149.71;38.64
53916;BME280;39827;49.652;18.770;2023-06-22T09:44:09;71690.75;;;-149.71;39.54
53916;BME280;39827;49.652;18.770;2023-06-22T09:46:35;71714.84;;;-149.71;38.82
53916;BME280;39827;49.652;18.770;2023-06-22T09:49:00;71668.66;;;-149.71;39.17
53916;BME280;39827;49.652;18.770;2023-06-22T09:51:25;71668.66;;;-149.71;39.31
53916;BME280;39827;49.652;18.770;2023-06-22T09:53:51;71694.75;;;-149.71;40.30
53916;BME280;39827;49.652;18.770;2023-06-22T09:56:19;71716.84;;;-149.71;39.64
53916;BME280;39827;49.652;18.770;2023-06-22T09:58:46;71660.63;;;-149.71;40.42
53916;BME280;39827;49.652;18.770;2023-06-22T10:01:12;71646.56;;;-149.71;38.52
53916;BME280;39827;49.652;18.770;2023-06-22T10:03:39;71620.47;;;-149.71;38.80
53916;BME280;39827;49.652;18.770;2023-06-22T10:06:06;71628.50;;;-149.71;40.48
53916;BME280;39827;49.652;18.770;2023-06-22T10:08:32;71612.44;;;-149.71;39.16
53916;BME280;39827;49.652;18.770;2023-06-22T10:10:58;71590.34;;;-149.71;37.16
53916;BME280;39827;49.652;18.770;2023-06-22T10:13:23;71580.31;;;-149.71;37.45
53916;BME280;39827;49.652;18.770;2023-06-22T10:15:48;71618.47;;;-149.71;37.27
53916;BME280;39827;49.652;18.770;2023-06-22T10:18:16;71658.63;;;-149.71;39.82
53916;BME280;39827;49.652;18.770;2023-06-22T10:20:42;71596.38;;;-149.71;38.03
53916;BME280;39827;49.652;18.770;2023-06-22T10:23:11;71588.34;;;-149.71;37.81
53916;BME280;39827;49.652;18.770;2023-06-22T10:25:36;71548.19;;;-149.71;36.24
53916;BME280;39827;49.652;18.770;2023-06-22T10:28:02;71608.41;;;-149.71;37.10
53916;BME280;39827;49.652;18.770;2023-06-22T10:30:27;71580.31;;;-149.71;36.91
53916;BME280;39827;49.652;18.770;2023-06-22T10:32:54;71548.19;;;-149.71;35.27
53916;BME280;39827;49.652;18.770;2023-06-22T10:35:20;71562.25;;;-149.71;36.50
53916;BME280;39827;49.652;18.770;2023-06-22T10:37:46;71534.13;;;-149.71;35.58
53916;BME280;39827;49.652;18.770;2023-06-22T10:40:13;71596.38;;;-149.71;37.31
53916;BME280;39827;49.652;18.770;2023-06-22T10:42:40;71596.38;;;-149.71;36.19
53916;BME280;39827;49.652;18.770;2023-06-22T10:45:06;71534.13;;;-149.71;35.58
53916;BME280;39827;49.652;18.770;2023-06-22T10:47:31;71582.31;;;-149.71;34.95
53916;BME280;39827;49.652;18.770;2023-06-22T10:49:57;71636.53;;;-149.71;35.03
53916;BME280;39827;49.652;18.770;2023-06-22T10:52:22;71632.50;;;-149.71;37.84
53916;BME280;39827;49.652;18.770;2023-06-22T10:54:47;71596.38;;;-149.71;37.67
53916;BME280;39827;49.652;18.770;2023-06-22T10:57:13;71560.22;;;-149.71;36.45
53916;BME280;39827;49.652;18.770;2023-06-22T10:59:39;71574.28;;;-149.71;37.05
53916;BME280;39827;49.652;18.770;2023-06-22T11:02:04;71528.09;;;-149.71;37.36
53916;BME280;39827;49.652;18.770;2023-06-22T11:04:30;71582.31;;;-149.71;38.40
53916;BME280;39827;49.652;18.770;2023-06-22T11:06:55;71554.22;;;-149.71;36.96
53916;BME280;39827;49.652;18.770;2023-06-22T11:09:21;71528.09;;;-149.71;36.94
53916;BME280;39827;49.652;18.770;2023-06-22T11:11:47;71528.09;;;-149.71;36.24
53916;BME280;39827;49.652;18.770;2023-06-22T11:14:13;71524.09;;;-149.71;36.70
53916;BME280;39827;49.652;18.770;2023-06-22T11:16:39;71542.16;;;-149.71;36.85
53916;BME280;39827;49.652;18.770;2023-06-22T11:19:05;71558.22;;;-149.71;36.82
53916;BME280;39827;49.652;18.770;2023-06-22T11:21:31;71586.34;;;-149.71;36.88
53916;BME280;39827;49.652;18.770;2023-06-22T11:23:56;71570.28;;;-149.71;38.35
53916;BME280;39827;49.652;18.770;2023-06-22T11:26:22;71560.22;;;-149.71;37.38
53916;BME280;39827;49.652;18.770;2023-06-22T11:28:48;71572.28;;;-149.71;38.12
53916;BME280;39827;49.652;18.770;2023-06-22T11:31:13;71562.25;;;-149.71;37.95
53916;BME280;39827;49.652;18.770;2023-06-22T11:33:39;71596.38;;;-149.71;37.79
53916;BME280;39827;49.652;18.770;2023-06-22T11:36:05;71580.31;;;-149.71;38.19
53916;BME280;39827;49.652;18.770;2023-06-22T11:38:30;71578.31;;;-149.71;38.41
53916;BME280;39827;49.652;18.770;2023-06-22T11:40:58;71588.34;;;-149.71;37.54
53916;BME280;39827;49.652;18.770;2023-06-22T11:43:23;71616.44;;;-149.71;38.57
53916;BME280;39827;49.652;18.770;2023-06-22T11:45:49;71592.34;;;-149.71;37.90
53916;BME280;39827;49.652;18.770;2023-06-22T11:48:14;71574.28;;;-149.71;37.29
53916;BME280;39827;49.652;18.770;2023-06-22T11:50:40;71612.44;;;-149.71;36.24
53916;BME280;39827;49.652;18.770;2023-06-22T11:53:06;71692.75;;;-149.71;38.94
53916;BME280;39827;49.652;18.770;2023-06-22T11:55:31;71648.56;;;-149.71;39.08
53916;BME280;39827;49.652;18.770;2023-06-22T11:57:57;71646.56;;;-149.71;40.23
53916;BME280;39827;49.652;18.770;2023-06-22T12:00:23;71636.53;;;-149.71;39.48
53916;BME280;39827;49.652;18.770;2023-06-22T12:02:50;71630.50;;;-149.71;39.18
53916;BME280;39827;49.652;18.770;2023-06-22T12:05:19;71664.63;;;-149.71;40.96
53916;BME280;39827;49.652;18.770;2023-06-22T12:07:45;71678.69;;;-149.71;38.87
53916;BME280;39827;49.652;18.770;2023-06-22T12:10:11;71652.59;;;-149.71;40.61
53916;BME280;39827;49.652;18.770;2023-06-22T12:12:36;71664.63;;;-149.71;40.92
53916;BME280;39827;49.652;18.770;2023-06-22T12:15:02;71660.63;;;-149.71;39.80
53916;BME280;39827;49.652;18.770;2023-06-22T12:17:29;71650.59;;;-149.71;40.28
53916;BME280;39827;49.652;18.770;2023-06-22T12:19:55;71684.72;;;-149.71;39.93
53916;BME280;39827;49.652;18.770;2023-06-22T12:22:21;71696.75;;;-149.71;39.33
53916;BME280;39827;49.652;18.770;2023-06-22T12:24:46;71680.69;;;-149.71;39.26
53916;BME280;39827;49.652;18.770;2023-06-22T12:27:12;71684.72;;;-149.71;39.92
53916;BME280;39827;49.652;18.770;2023-06-22T12:29:37;71698.78;;;-149.71;40.73
53916;BME280;39827;49.652;18.770;2023-06-22T12:32:03;71682.72;;;-149.71;39.78